Time;durP1;ratioP1;P1;durP2;ratioP2;P2;SDS_P1;SDS_P2;PMS_P1;PMS_P2;Temp;Humidity;BMP_temperature;BMP_pressure;BME280_temperature;BME280_humidity;BME280_pressure;Samples;Min_cycle;Max_cycle;Signal;HPM_P1;HPM_P2
2023/05/06 00:02:11;;;;;;;3.45;2.20;;;;;;;17.92;46.74;98751.06;4992805;28;20486;-78
2023/05/06 00:04:37;;;;;;;2.97;1.88;;;;;;;17.86;46.93;98757.78;5003931;28;20096;-78
2023/05/06 00:07:02;;;;;;;4.10;2.20;;;;;;;17.89;46.85;98754.03;4979128;28;20375;-77
2023/05/06 00:09:28;;;;;;;3.58;2.25;;;;;;;17.88;46.86;98761.13;4995274;28;20125;-77
2023/05/06 00:11:53;;;;;;;2.75;1.83;;;;;;;17.85;46.97;98744.75;5012716;28;20037;-78
2023/05/06 00:14:19;;;;;;;3.47;2.00;;;;;;;17.86;46.96;98741.94;4995441;28;20042;-77
2023/05/06 00:16:44;;;;;;;4.85;2.10;;;;;;;17.87;47.11;98751.53;5012305;28;20513;-78
2023/05/06 00:19:10;;;;;;;3.17;2.03;;;;;;;17.84;46.90;98751.84;5012349;28;20239;-77
2023/05/06 00:21:36;;;;;;;3.22;2.05;;;;;;;17.82;46.89;98742.44;4995230;28;20042;-78
2023/05/06 00:24:02;;;;;;;6.10;2.33;;;;;;;17.83;47.11;98749.38;4995036;28;20113;-77
2023/05/06 00:26:27;;;;;;;4.88;2.20;;;;;;;17.81;46.83;98746.06;4994702;28;20038;-78
2023/05/06 00:28:52;;;;;;;6.20;2.00;;;;;;;17.80;47.24;98737.31;4978950;28;20413;-78
2023/05/06 00:31:18;;;;;;;2.80;2.00;;;;;;;17.82;47.16;98739.78;5012445;28;20042;-78
2023/05/06 00:33:43;;;;;;;2.80;1.90;;;;;;;17.80;47.07;98745.22;4978538;28;20460;-78
2023/05/06 00:36:09;;;;;;;3.03;2.28;;;;;;;17.81;47.20;98738.16;4995233;28;20038;-78
2023/05/06 00:38:35;;;;;;;4.05;2.25;;;;;;;17.79;47.21;98738.31;4996087;28;20053;-78
2023/05/06 00:41:00;;;;;;;3.80;2.55;;;;;;;17.75;47.31;98736.97;4999136;28;20196;-78
2023/05/06 00:43:26;;;;;;;3.78;2.28;;;;;;;17.77;47.30;98736.81;4998585;28;20048;-78
2023/05/06 00:45:51;;;;;;;3.53;2.00;;;;;;;17.73;47.33;98737.13;4982282;28;20041;-78
2023/05/06 00:48:17;;;;;;;4.10;2.50;;;;;;;17.73;47.36;98731.03;4998362;28;20033;-78
2023/05/06 00:50:42;;;;;;;3.67;2.33;;;;;;;17.75;47.53;98738.81;4966044;28;20527;-79
2023/05/06 00:53:08;;;;;;;6.75;2.72;;;;;;;17.72;47.41;98732.03;4998349;28;20460;-78
2023/05/06 00:55:34;;;;;;;4.72;2.35;;;;;;;17.70;47.44;98721.63;4981404;28;20069;-78
2023/05/06 00:57:59;;;;;;;3.67;2.30;;;;;;;17.71;47.51;98735.63;4981748;28;20100;-78
2023/05/06 01:00:25;;;;;;;3.83;2.50;;;;;;;17.71;47.38;98727.72;4981942;28;20100;-78
2023/05/06 01:02:51;;;;;;;5.30;2.60;;;;;;;17.69;47.44;98724.44;4998373;28;20479;-78
2023/05/06 01:05:17;;;;;;;5.53;2.47;;;;;;;17.70;47.59;98723.44;4981461;28;20049;-78
2023/05/06 01:07:49;;;;;;;4.90;2.38;;;;;;;17.70;47.67;98723.44;4982075;28;20535;-78
2023/05/06 01:10:30;;;;;;;5.82;2.78;;;;;;;17.69;47.88;98716.50;4982118;28;20420;-78
2023/05/06 01:13:27;;;;;;;6.43;2.65;;;;;;;17.68;47.52;98720.97;4997965;28;20074;-78
2023/05/06 01:15:54;;;;;;;4.18;2.40;;;;;;;17.65;47.57;98716.00;4955541;29;20066;-78
2023/05/06 01:18:21;;;;;;;4.45;2.67;;;;;;;17.69;47.19;98725.25;4938298;29;20173;-78
2023/05/06 01:20:48;;;;;;;3.30;2.33;;;;;;;17.59;47.42;98698.19;4923449;29;20557;-78
2023/05/06 01:23:14;;;;;;;4.25;2.25;;;;;;;17.65;47.49;98709.94;4955032;29;20053;-78
2023/05/06 01:25:40;;;;;;;4.40;2.53;;;;;;;17.66;47.60;98703.63;4954841;29;20047;-78
2023/05/06 01:28:11;;;;;;;4.65;2.63;;;;;;;17.66;47.57;98706.28;4954835;29;20507;-77
2023/05/06 01:30:58;;;;;;;3.53;2.50;;;;;;;17.64;47.53;98701.16;4939145;29;20194;-78
2023/05/06 01:33:26;;;;;;;4.32;2.72;;;;;;;17.67;47.47;98700.03;4938836;29;20047;-77
2023/05/06 01:35:53;;;;;;;;;;;;;;;17.66;47.30;98706.28;4939284;29;20050;-77
2023/05/06 01:38:26;;;;;;;4.43;2.60;;;;;;;17.63;47.51;98703.97;4970540;28;19950;-77
2023/05/06 01:40:54;;;;;;;4.13;2.55;;;;;;;17.63;47.38;98704.81;4922882;29;20039;-78
2023/05/06 01:43:20;;;;;;;5.97;2.50;;;;;;;17.65;47.39;98709.94;4954414;28;20071;-77
2023/05/06 01:45:48;;;;;;;4.10;2.65;;;;;;;17.64;47.35;98700.34;4923011;29;20062;-77
2023/05/06 01:48:13;;;;;;;4.28;2.67;;;;;;;17.65;47.33;98700.19;4938842;29;20507;-78
2023/05/06 01:50:39;;;;;;;7.78;2.47;;;;;;;17.63;47.32;98696.88;4937214;29;20047;-77
2023/05/06 01:53:05;;;;;;;5.25;2.63;;;;;;;17.64;47.46;98700.34;5004861;28;20030;-78
2023/05/06 01:55:31;;;;;;;4.93;2.95;;;;;;;17.63;47.17;98701.31;4997293;28;20048;-78
2023/05/06 01:57:56;;;;;;;3.45;2.42;;;;;;;17.63;47.26;98706.59;5014670;28;20446;-78
2023/05/06 02:00:23;;;;;;;3.45;2.40;;;;;;;17.62;47.15;98689.13;5014908;28;20393;-78
2023/05/06 02:02:49;;;;;;;3.78;2.60;;;;;;;17.58;47.13;98699.16;4981469;28;20173;-78
2023/05/06 02:05:15;;;;;;;4.63;2.50;;;;;;;17.57;47.23;98694.06;4997354;28;20053;-77
2023/05/06 02:07:40;;;;;;;4.80;2.90;;;;;;;17.59;47.11;98695.56;5014611;28;20065;-78
2023/05/06 02:10:07;;;;;;;8.25;2.70;;;;;;;17.61;47.21;98703.31;4981203;28;20046;-78
2023/05/06 02:12:33;;;;;;;5.60;2.72;;;;;;;17.60;47.11;98704.28;4980765;28;20034;-78
2023/05/06 02:14:58;;;;;;;5.10;2.67;;;;;;;17.59;47.06;98686.81;4996438;28;20504;-78
2023/05/06 02:17:24;;;;;;;5.22;2.70;;;;;;;17.57;47.10;98702.81;4996668;28;20529;-76
2023/05/06 02:19:49;;;;;;;4.43;2.50;;;;;;;17.57;47.25;98704.59;5013890;28;20130;-78
2023/05/06 02:22:15;;;;;;;6.18;2.58;;;;;;;17.57;47.36;98702.81;4997017;28;20069;-78
2023/05/06 02:24:40;;;;;;;6.38;2.70;;;;;;;17.56;47.31;98705.63;5013863;28;20092;-78
2023/05/06 02:27:06;;;;;;;5.53;2.92;;;;;;;17.56;46.97;98708.25;4996412;28;20120;-78
2023/05/06 02:29:31;;;;;;;4.38;2.85;;;;;;;17.54;47.24;98708.41;5013852;28;20034;-78
2023/05/06 02:31:57;;;;;;;5.25;2.50;;;;;;;17.54;47.19;98703.94;4996136;28;20081;-78
2023/05/06 02:34:22;;;;;;;3.92;2.60;;;;;;;17.54;47.17;98705.78;5013649;28;20042;-78
2023/05/06 02:36:48;;;;;;;5.75;2.72;;;;;;;17.52;47.33;98713.84;5013478;28;20109;-78
2023/05/06 02:39:13;;;;;;;3.63;2.58;;;;;;;17.50;47.28;98715.81;4996073;28;20413;-78
2023/05/06 02:41:39;;;;;;;4.45;2.58;;;;;;;17.52;47.04;98711.22;4996226;28;20037;-78
2023/05/06 02:44:05;;;;;;;6.30;2.60;;;;;;;17.51;47.21;98699.00;4995996;28;20450;-77
2023/05/06 02:46:30;;;;;;;4.32;2.60;;;;;;;17.52;47.20;98705.94;5013601;28;20034;-77
2023/05/06 02:48:56;;;;;;;4.82;2.90;;;;;;;17.50;47.28;98702.63;4995728;28;20046;-78
2023/05/06 02:51:21;;;;;;;4.85;2.70;;;;;;;17.51;47.36;98714.00;4995937;28;20034;-77
2023/05/06 02:53:47;;;;;;;4.90;2.53;;;;;;;17.46;47.31;98698.66;5013505;28;20037;-78
2023/05/06 02:56:12;;;;;;;7.50;2.80;;;;;;;17.50;47.29;98702.63;4995677;28;20100;-78
2023/05/06 02:58:38;;;;;;;4.55;2.70;;;;;;;17.50;47.34;98701.81;5013557;28;20049;-78
2023/05/06 03:01:03;;;;;;;4.43;2.53;;;;;;;17.51;47.34;98700.81;5012830;28;20064;-78
2023/05/06 03:03:29;;;;;;;5.30;2.80;;;;;;;17.51;47.38;98703.47;4995515;28;20243;-78
2023/05/06 03:05:54;;;;;;;4.72;2.80;;;;;;;17.51;47.31;98701.63;5013640;28;20034;-78
2023/05/06 03:08:20;;;;;;;5.53;2.50;;;;;;;17.53;47.34;98701.47;5013571;28;20478;-78
2023/05/06 03:10:45;;;;;;;4.00;2.90;;;;;;;17.53;47.24;98702.28;4995018;28;20105;-78
2023/05/06 03:13:11;;;;;;;3.92;2.60;;;;;;;17.56;47.24;98709.06;4995601;28;20441;-78
2023/05/06 03:15:36;;;;;;;5.95;3.10;;;;;;;17.58;46.91;98701.00;5012808;28;20092;-78
2023/05/06 03:18:02;;;;;;;4.00;2.50;;;;;;;17.61;47.04;98704.13;5012987;28;20101;-78
2023/05/06 03:20:27;;;;;;;4.30;2.60;;;;;;;17.65;47.12;98710.75;4995115;28;20494;-77
2023/05/06 03:22:54;;;;;;;4.57;2.67;;;;;;;17.67;46.85;98703.47;5013024;28;20037;-78
2023/05/06 03:25:20;;;;;;;4.28;2.78;;;;;;;17.73;46.95;98718.66;5012984;28;20524;-78
2023/05/06 03:27:45;;;;;;;3.22;2.33;;;;;;;17.77;46.92;98716.50;5012698;28;20052;-78
2023/05/06 03:30:11;;;;;;;3.83;2.63;;;;;;;17.82;46.88;98716.88;5012613;28;20070;-78
2023/05/06 03:32:37;;;;;;;4.82;2.65;;;;;;;18.16;46.01;98723.81;4995407;28;20057;-78
2023/05/06 03:35:03;;;;;;;3.95;2.60;;;;;;;18.98;44.22;98722.84;4995405;28;20034;-78
2023/05/06 03:37:29;;;;;;;7.93;2.63;;;;;;;19.77;42.44;98711.38;4995223;28;20045;-78
2023/05/06 03:39:55;;;;;;;3.92;2.30;;;;;;;20.53;40.85;98721.97;4995131;28;20503;-79
2023/05/06 03:42:20;;;;;;;7.22;2.58;;;;;;;21.33;39.26;98720.34;5012464;28;20124;-78
2023/05/06 03:44:46;;;;;;;4.40;2.38;;;;;;;22.08;37.70;98725.44;5012457;28;20041;-78
2023/05/06 03:47:11;;;;;;;5.65;2.60;;;;;;;22.87;36.32;98721.72;5012379;28;20042;-75
2023/05/06 03:49:37;;;;;;;8.18;2.50;;;;;;;23.64;34.91;98723.25;4978357;28;20517;-76
2023/05/06 03:52:02;;;;;;;6.43;2.30;;;;;;;24.38;33.87;98734.81;4995094;28;20049;-76
2023/05/06 03:54:28;;;;;;;3.50;2.30;;;;;;;25.16;32.49;98721.69;4994961;28;20030;-76
2023/05/06 03:56:53;;;;;;;3.35;2.25;;;;;;;25.86;31.00;98734.31;4995187;28;20050;-77
2023/05/06 03:59:19;;;;;;;3.35;2.05;;;;;;;26.51;30.08;98726.78;4978556;28;20073;-77
2023/05/06 04:01:44;;;;;;;3.10;2.35;;;;;;;27.18;28.91;98736.78;4994650;28;20057;-77
2023/05/06 04:04:10;;;;;;;5.97;2.40;;;;;;;27.83;27.92;98732.63;5012353;28;20046;-77
2023/05/06 04:06:35;;;;;;;4.00;2.20;;;;;;;28.42;27.10;98727.38;4994818;28;20560;-77
2023/05/06 04:09:01;;;;;;;4.78;1.95;;;;;;;29.08;26.82;98740.59;4994671;28;20145;-78
2023/05/06 04:11:26;;;;;;;3.53;2.08;;;;;;;29.67;25.37;98743.13;5012107;28;20041;-77
2023/05/06 04:13:52;;;;;;;4.38;2.00;;;;;;;30.28;25.17;98737.97;4996754;28;20071;-77
2023/05/06 04:16:17;;;;;;;5.07;1.85;;;;;;;30.87;24.03;98739.38;4998868;28;20037;-77
2023/05/06 04:18:43;;;;;;;4.72;2.25;;;;;;;31.48;23.52;98749.25;5016225;28;20042;-77
2023/05/06 04:21:10;;;;;;;3.50;1.70;;;;;;;32.04;22.94;98754.38;4998614;28;20113;-77
2023/05/06 04:23:37;;;;;;;3.20;1.77;;;;;;;32.55;22.22;98749.41;4999540;28;20117;-76
2023/05/06 04:26:02;;;;;;;5.30;1.85;;;;;;;33.11;21.49;98756.97;5016779;28;20497;-77
2023/05/06 04:28:28;;;;;;;4.90;1.80;;;;;;;33.61;20.79;98760.16;5016078;28;20033;-77
2023/05/06 04:30:53;;;;;;;3.92;1.80;;;;;;;34.16;20.85;98748.81;5016148;28;20089;-77
2023/05/06 04:33:19;;;;;;;5.60;1.88;;;;;;;34.61;19.78;98758.81;4982373;28;20074;-77
2023/05/06 04:35:53;;;;;;;3.70;1.80;;;;;;;35.11;19.13;98755.44;5015935;28;20038;-77
2023/05/06 04:38:25;;;;;;;6.40;1.85;;;;;;;35.60;18.72;98756.56;4981587;28;20042;-77
2023/05/06 04:40:51;;;;;;;7.35;1.80;;;;;;;36.12;18.54;98778.72;5015827;28;20066;-77
2023/05/06 04:43:17;;;;;;;2.83;1.77;;;;;;;36.55;18.02;98777.00;5015797;28;20069;-77
2023/05/06 04:45:48;;;;;;;2.97;1.60;;;;;;;37.03;17.79;98757.19;5015718;28;20038;-77
2023/05/06 04:48:17;;;;;;;4.82;1.70;;;;;;;37.50;17.18;98765.56;4999103;28;20112;-77
2023/05/06 04:50:42;;;;;;;2.30;1.58;;;;;;;37.91;16.87;98761.47;4998140;28;20037;-78
2023/05/06 04:53:08;;;;;;;4.40;1.52;;;;;;;38.29;16.47;98775.03;4998306;28;20485;-78
2023/05/06 04:55:34;;;;;;;3.92;1.67;;;;;;;38.70;16.25;98764.19;4998220;28;20042;-77
2023/05/06 04:57:59;;;;;;;3.20;1.70;;;;;;;39.08;15.78;98769.44;4981818;28;20413;-78
2023/05/06 05:00:26;;;;;;;4.45;1.50;;;;;;;39.44;15.63;98762.38;5015580;28;20038;-78
2023/05/06 05:02:51;;;;;;;2.85;1.40;;;;;;;39.76;15.36;98769.59;5015399;28;20505;-78
2023/05/06 05:05:17;;;;;;;5.20;1.92;;;;;;;40.11;14.83;98775.34;5015358;28;20113;-78
2023/05/06 05:07:43;;;;;;;4.43;1.70;;;;;;;40.41;14.74;98769.41;5015480;28;20489;-78
2023/05/06 05:10:09;;;;;;;3.40;1.60;;;;;;;40.72;14.74;98766.63;4997982;28;20053;-78
2023/05/06 05:12:35;;;;;;;7.25;1.83;;;;;;;40.99;14.38;98771.13;4997882;28;20045;-78
2023/05/06 05:15:00;;;;;;;4.65;1.50;;;;;;;41.26;14.16;98779.38;5015060;28;20129;-79
2023/05/06 05:17:26;;;;;;;3.13;1.40;;;;;;;41.43;13.95;98765.72;4981765;28;20463;-79
2023/05/06 05:19:51;;;;;;;3.78;1.50;;;;;;;41.66;13.65;98760.88;4998210;28;20081;-78
2023/05/06 05:22:17;;;;;;;3.25;1.40;;;;;;;41.81;13.65;98767.81;4981819;28;20074;-79
2023/05/06 05:24:42;;;;;;;2.88;1.40;;;;;;;41.97;13.75;98779.09;5015030;28;20056;-77
2023/05/06 05:27:09;;;;;;;2.88;1.30;;;;;;;42.04;13.58;98778.63;5015251;28;20053;-80
2023/05/06 05:29:35;;;;;;;3.45;1.25;;;;;;;42.20;13.52;98785.22;4998106;28;20408;-79
2023/05/06 05:32:01;;;;;;;3.55;1.50;;;;;;;42.34;13.46;98782.28;4997541;28;20033;-79
2023/05/06 05:34:26;;;;;;;4.45;1.30;;;;;;;42.43;13.37;98788.53;4981607;28;20045;-78
2023/05/06 05:36:52;;;;;;;2.63;1.53;;;;;;;42.52;13.33;98793.97;4965669;28;20045;-77
2023/05/06 05:39:17;;;;;;;3.10;1.20;;;;;;;42.61;13.51;98789.31;4997388;28;20033;-78
2023/05/06 05:41:43;;;;;;;4.78;1.50;;;;;;;42.64;13.30;98788.66;5014907;28;20389;-77
2023/05/06 05:44:08;;;;;;;6.95;1.50;;;;;;;42.69;13.55;98795.09;4997527;28;20038;-77
2023/05/06 05:46:33;;;;;;;2.30;1.27;;;;;;;42.70;13.11;98786.53;4997118;28;20037;-77
2023/05/06 05:48:59;;;;;;;2.28;1.25;;;;;;;42.73;13.45;98791.38;5014432;28;20116;-78
2023/05/06 05:51:25;;;;;;;5.47;1.37;;;;;;;42.73;13.18;98801.53;4997210;28;20042;-79
2023/05/06 05:53:51;;;;;;;2.30;1.33;;;;;;;42.71;13.23;98799.09;5029167;28;20045;-79
2023/05/06 05:56:16;;;;;;;5.50;1.40;;;;;;;42.75;13.34;98804.75;5014552;28;20042;-79
2023/05/06 05:58:42;;;;;;;3.40;1.63;;;;;;;42.71;13.35;98798.31;4997269;28;20372;-78
2023/05/06 06:01:07;;;;;;;3.17;1.37;;;;;;;42.66;13.55;98811.06;5014358;28;20405;-79
2023/05/06 06:03:33;;;;;;;3.30;1.60;;;;;;;42.63;13.60;98817.22;4996923;28;20085;-77
2023/05/06 06:05:58;;;;;;;2.30;1.40;;;;;;;42.59;13.59;98819.03;4997299;28;20046;-77
2023/05/06 06:08:25;;;;;;;2.63;1.47;;;;;;;42.55;13.56;98811.75;4996869;28;20041;-78
2023/05/06 06:10:50;;;;;;;4.43;1.42;;;;;;;42.51;13.68;98808.03;5014264;28;20048;-78
2023/05/06 06:13:16;;;;;;;4.50;1.50;;;;;;;42.44;13.94;98817.56;4996830;28;20049;-78
2023/05/06 06:15:41;;;;;;;2.78;1.40;;;;;;;42.33;13.94;98821.00;4996621;28;20045;-78
2023/05/06 06:18:07;;;;;;;5.10;1.47;;;;;;;42.21;13.79;98818.91;4979718;28;20100;-78
2023/05/06 06:20:34;;;;;;;7.17;1.60;;;;;;;42.15;14.14;98817.47;5013985;28;20038;-78
2023/05/06 06:22:59;;;;;;;4.85;1.60;;;;;;;42.02;13.95;98816.50;4996959;28;20042;-78
2023/05/06 06:25:25;;;;;;;2.85;1.52;;;;;;;41.97;14.27;98822.16;4996689;28;20493;-77
2023/05/06 06:27:50;;;;;;;3.08;1.48;;;;;;;41.88;14.15;98800.25;4964045;28;20418;-78
2023/05/06 06:30:16;;;;;;;4.07;1.27;;;;;;;41.83;14.17;98811.34;4979937;28;20351;-78
2023/05/06 06:32:51;;;;;;;4.68;1.63;;;;;;;41.63;14.49;98810.06;5013910;28;20041;-77
2023/05/06 06:35:18;;;;;;;5.20;1.52;;;;;;;41.60;14.38;98814.22;4996304;28;20389;-79
2023/05/06 06:37:43;;;;;;;3.00;1.40;;;;;;;41.52;14.85;98820.53;4996095;28;20041;-78
2023/05/06 06:40:10;;;;;;;4.10;1.50;;;;;;;41.43;14.51;98819.69;5013768;28;20034;-79
2023/05/06 06:42:35;;;;;;;2.60;1.45;;;;;;;41.31;14.91;98812.91;4996118;28;20034;-78
2023/05/06 06:45:01;;;;;;;4.15;1.58;;;;;;;41.25;15.20;98816.91;4980275;28;20113;-78
2023/05/06 06:47:26;;;;;;;1.83;1.30;;;;;;;41.21;14.71;98813.19;5014256;28;20108;-79
2023/05/06 06:49:52;;;;;;;3.10;1.45;;;;;;;41.17;15.24;98807.53;5013702;28;20413;-78
2023/05/06 06:52:17;;;;;;;4.68;1.60;;;;;;;41.15;15.17;98812.53;4963959;28;20049;-76
2023/05/06 06:54:43;;;;;;;1.92;1.30;;;;;;;41.08;15.53;98812.19;4996266;28;20034;-78
2023/05/06 06:57:08;;;;;;;4.07;1.50;;;;;;;41.04;15.24;98812.03;4996021;28;20053;-78
2023/05/06 06:59:34;;;;;;;3.28;1.90;;;;;;;41.00;15.45;98810.22;4981032;28;20072;-79
2023/05/06 07:01:59;;;;;;;5.70;1.45;;;;;;;40.97;15.39;98813.59;4979651;28;20133;-78
2023/05/06 07:04:25;;;;;;;2.05;1.45;;;;;;;40.90;15.52;98805.88;5013868;28;20540;-78
2023/05/06 07:06:50;;;;;;;2.97;1.63;;;;;;;40.84;15.74;98801.63;4996132;28;20030;-77
2023/05/06 07:09:16;;;;;;;1.83;1.27;;;;;;;40.85;15.96;98809.53;4963245;28;20437;-79
2023/05/06 07:11:41;;;;;;;4.40;1.80;;;;;;;40.81;16.13;98807.72;4979149;28;20034;-79
2023/05/06 07:14:07;;;;;;;4.82;1.60;;;;;;;40.81;15.87;98810.47;5013526;28;20093;-81
2023/05/06 07:16:33;;;;;;;3.10;1.75;;;;;;;40.79;16.17;98820.94;4996250;28;20034;-79
2023/05/06 07:18:59;;;;;;;4.07;1.65;;;;;;;40.79;15.93;98809.97;4980506;28;20525;-79
2023/05/06 07:21:26;;;;;;;4.85;1.60;;;;;;;40.75;16.39;98822.66;4979918;28;20130;-78
2023/05/06 07:23:51;;;;;;;2.88;1.70;;;;;;;40.70;16.38;98818.13;4995859;28;20037;-78
2023/05/06 07:26:17;;;;;;;3.22;1.80;;;;;;;40.68;16.21;98812.19;4995497;28;20038;-77
2023/05/06 07:28:42;;;;;;;2.72;1.85;;;;;;;40.64;16.43;98814.75;4996008;28;20473;-79
2023/05/06 07:31:08;;;;;;;7.00;3.40;;;;;;;40.58;16.25;98818.75;4979773;28;20042;-78
2023/05/06 07:33:33;;;;;;;4.40;2.88;;;;;;;40.53;16.32;98823.53;4979420;28;20509;-77
2023/05/06 07:35:59;;;;;;;6.00;3.35;;;;;;;40.49;16.61;98823.34;5013504;28;20038;-77
2023/05/06 07:38:24;;;;;;;4.00;2.83;;;;;;;40.41;16.40;98815.88;5012939;28;20046;-78
2023/05/06 07:40:50;;;;;;;5.65;2.95;;;;;;;40.36;16.60;98810.53;5013070;28;20407;-78
2023/05/06 07:43:16;;;;;;;7.32;2.75;;;;;;;40.30;16.37;98815.34;4978908;28;20041;-79
2023/05/06 07:45:41;;;;;;;4.25;2.28;;;;;;;40.23;16.45;98809.50;4978842;28;20128;-78
2023/05/06 07:48:07;;;;;;;3.63;2.42;;;;;;;40.20;16.66;98804.66;4978950;28;20052;-78
2023/05/06 07:50:33;;;;;;;3.97;2.55;;;;;;;40.14;16.74;98820.38;5013052;28;20101;-78
2023/05/06 07:52:59;;;;;;;4.43;2.42;;;;;;;40.12;16.69;98820.69;4995687;28;20030;-78
2023/05/06 07:55:24;;;;;;;4.78;2.30;;;;;;;40.02;16.97;98818.19;4979179;28;20038;-78
2023/05/06 07:57:50;;;;;;;5.47;2.60;;;;;;;39.89;16.93;98828.03;5013117;28;20050;-79
2023/05/06 08:00:16;;;;;;;6.05;2.60;;;;;;;39.90;16.97;98831.56;4995621;28;20037;-78
2023/05/06 08:02:43;;;;;;;3.97;2.17;;;;;;;39.84;16.99;98828.16;5012935;28;20049;-78
2023/05/06 08:05:09;;;;;;;5.90;2.30;;;;;;;39.70;17.07;98828.22;5012765;28;20057;-79
2023/05/06 08:07:35;;;;;;;3.13;2.10;;;;;;;39.61;16.81;98824.59;4995449;28;20106;-77
2023/05/06 08:10:01;;;;;;;2.78;1.90;;;;;;;39.45;17.37;98835.00;4978967;28;20042;-77
2023/05/06 08:12:26;;;;;;;5.40;2.03;;;;;;;39.37;17.40;98842.00;5012727;28;20088;-79
2023/05/06 08:14:53;;;;;;;7.35;2.30;;;;;;;39.36;17.16;98831.38;5012521;28;20038;-78
2023/05/06 08:17:19;;;;;;;5.88;1.95;;;;;;;39.21;17.19;98833.31;4995473;28;20030;-79
2023/05/06 08:19:44;;;;;;;3.72;2.20;;;;;;;39.21;17.31;98825.13;4979191;28;20382;-78
2023/05/06 08:22:10;;;;;;;2.75;1.80;;;;;;;39.16;17.40;98827.97;5012406;28;20173;-78
2023/05/06 08:24:36;;;;;;;5.82;1.70;;;;;;;38.36;18.14;98821.78;4995082;28;20561;-78
2023/05/06 08:27:03;;;;;;;3.42;2.10;;;;;;;38.28;18.25;98830.63;4978401;28;20077;-77
2023/05/06 08:29:28;;;;;;;2.78;1.70;;;;;;;37.52;18.55;98828.69;4995160;28;20469;-78
2023/05/06 08:31:54;;;;;;;3.15;1.63;;;;;;;37.64;18.82;98820.91;5012371;28;20034;-78
2023/05/06 08:34:20;;;;;;;5.18;2.08;;;;;;;37.50;19.00;98822.75;5012632;28;20034;-76
2023/05/06 08:36:47;;;;;;;5.03;2.08;;;;;;;37.48;18.96;98825.75;4994953;28;20485;-77
2023/05/06 08:39:13;;;;;;;2.72;1.63;;;;;;;37.45;19.18;98820.91;4994971;28;20053;-79
2023/05/06 08:41:38;;;;;;;4.13;2.22;;;;;;;36.61;19.86;98824.00;4962526;28;20128;-77
2023/05/06 08:44:04;;;;;;;4.18;1.80;;;;;;;36.09;20.75;98820.03;4979044;28;20121;-77
2023/05/06 08:46:30;;;;;;;5.88;2.05;;;;;;;35.76;20.87;98831.41;4978883;28;20034;-78
2023/05/06 08:48:57;;;;;;;4.20;2.00;;;;;;;35.11;21.68;98829.47;4978966;28;20096;-77
2023/05/06 08:51:24;;;;;;;3.33;1.98;;;;;;;34.67;22.21;98835.53;4994815;28;20030;-79
2023/05/06 08:53:50;;;;;;;7.32;2.10;;;;;;;34.21;22.91;98843.66;4978977;28;20486;-78
2023/05/06 08:56:16;;;;;;;4.47;1.90;;;;;;;34.39;22.69;98837.69;4995112;28;20037;-77
2023/05/06 08:58:44;;;;;;;3.25;2.10;;;;;;;34.06;22.63;98834.44;4995001;28;20052;-78
2023/05/06 09:01:09;;;;;;;2.95;1.80;;;;;;;33.58;23.50;98832.94;4982508;28;20577;-78
2023/05/06 09:03:35;;;;;;;4.35;2.05;;;;;;;33.80;23.29;98833.56;4982520;28;20049;-78
2023/05/06 09:06:01;;;;;;;4.50;1.90;;;;;;;34.01;22.59;98842.53;4998832;28;20096;-78
2023/05/06 09:08:26;;;;;;;6.30;2.13;;;;;;;34.15;22.37;98831.97;4982241;28;20042;-77
2023/05/06 09:10:52;;;;;;;6.90;2.20;;;;;;;34.28;22.76;98838.00;5016363;28;20489;-77
2023/05/06 09:13:18;;;;;;;3.72;1.90;;;;;;;34.39;22.38;98831.47;4998131;28;20045;-77
2023/05/06 09:15:47;;;;;;;2.88;2.00;;;;;;;34.13;22.56;98827.91;4998136;28;20150;-78
2023/05/06 09:18:13;;;;;;;7.55;2.25;;;;;;;33.61;23.05;98835.13;4981947;28;20053;-79
2023/05/06 09:20:45;;;;;;;5.63;1.85;;;;;;;33.71;22.62;98824.34;4982219;28;20116;-78
2023/05/06 09:23:11;;;;;;;3.00;1.60;;;;;;;33.79;22.94;98823.00;4982094;28;20531;-78
2023/05/06 09:25:37;;;;;;;5.18;1.85;;;;;;;33.85;23.06;98825.44;4982668;28;20092;-79
2023/05/06 09:28:07;;;;;;;5.57;1.95;;;;;;;33.35;23.62;98819.59;4981582;28;20037;-78
2023/05/06 09:30:32;;;;;;;7.15;1.80;;;;;;;33.04;24.18;98821.31;4981782;28;20058;-78
2023/05/06 09:32:58;;;;;;;3.42;1.80;;;;;;;33.23;23.73;98823.63;4998167;28;20469;-78
2023/05/06 09:35:30;;;;;;;3.55;1.70;;;;;;;33.29;23.83;98817.97;4997844;28;20026;-78
2023/05/06 09:37:55;;;;;;;4.40;1.73;;;;;;;33.30;23.76;98813.34;4998104;28;20120;-79
2023/05/06 09:40:24;;;;;;;3.63;1.73;;;;;;;32.93;24.26;98833.16;4997713;28;20038;-80
2023/05/06 09:42:50;;;;;;;5.82;1.67;;;;;;;32.70;24.22;98820.84;4997606;28;20041;-78
2023/05/06 09:45:16;;;;;;;4.15;1.65;;;;;;;32.93;23.99;98820.44;4964590;28;20063;-78
2023/05/06 09:47:42;;;;;;;2.95;1.65;;;;;;;32.92;24.04;98816.09;4965185;28;20052;-78
2023/05/06 09:50:08;;;;;;;5.50;1.80;;;;;;;33.01;23.85;98808.34;4981349;28;20041;-78
2023/05/06 09:52:33;;;;;;;3.67;1.60;;;;;;;33.00;23.68;98807.53;5015885;28;20030;-78
2023/05/06 09:54:59;;;;;;;4.82;1.70;;;;;;;32.78;23.92;98815.78;4981175;28;20441;-78
2023/05/06 09:57:25;;;;;;;3.45;1.83;;;;;;;32.86;23.66;98821.75;4981106;28;20038;-78
2023/05/06 09:59:53;;;;;;;2.30;1.50;;;;;;;32.77;23.89;98808.75;4981047;28;20110;-78
2023/05/06 10:02:18;;;;;;;5.75;1.67;;;;;;;32.80;23.43;98813.63;4981603;28;20132;-78
2023/05/06 10:04:44;;;;;;;4.25;1.83;;;;;;;32.59;23.87;98812.66;4996577;28;20113;-77
2023/05/06 10:07:12;;;;;;;7.32;1.73;;;;;;;32.27;23.78;98809.97;4996535;28;20493;-80
2023/05/06 10:09:39;;;;;;;4.85;1.58;;;;;;;32.37;24.02;98820.03;5014381;28;20059;-78
2023/05/06 10:12:06;;;;;;;2.97;1.60;;;;;;;32.47;23.87;98810.13;4978992;28;20565;-78
2023/05/06 10:14:31;;;;;;;5.32;1.70;;;;;;;32.51;23.55;98810.41;4996819;28;20552;-78
2023/05/06 10:16:57;;;;;;;3.33;1.70;;;;;;;32.48;23.67;98821.75;4996757;28;20045;-79
2023/05/06 10:19:23;;;;;;;4.93;1.60;;;;;;;32.38;23.67;98810.88;4980416;28;20034;-77
2023/05/06 10:21:53;;;;;;;6.15;1.40;;;;;;;32.30;23.79;98814.06;4996927;28;20125;-78
2023/05/06 10:24:22;;;;;;;7.75;1.80;;;;;;;32.07;23.90;98811.41;4996249;28;20409;-78
2023/05/06 10:26:47;;;;;;;4.70;1.70;;;;;;;32.12;24.31;98815.22;4964315;28;20049;-78
2023/05/06 10:29:13;;;;;;;2.65;1.40;;;;;;;32.05;24.02;98823.50;4980161;28;20409;-78
2023/05/06 10:31:47;;;;;;;5.38;1.55;;;;;;;31.99;24.33;98814.56;4996444;28;20042;-78
2023/05/06 10:34:12;;;;;;;6.55;2.22;;;;;;;31.93;24.40;98819.09;4980995;28;20030;-78
2023/05/06 10:36:38;;;;;;;4.38;1.60;;;;;;;31.87;24.46;98828.22;4980502;28;20136;-78
2023/05/06 10:39:05;;;;;;;5.60;1.70;;;;;;;31.83;24.80;98816.28;4963939;28;20116;-77
2023/05/06 10:41:32;;;;;;;3.53;1.60;;;;;;;31.81;24.65;98813.03;4980857;28;20137;-78
2023/05/06 10:43:58;;;;;;;3.58;1.45;;;;;;;31.76;24.53;98814.88;4996394;28;20026;-77
2023/05/06 10:46:27;;;;;;;3.33;1.42;;;;;;;31.70;24.73;98805.91;5013634;28;20456;-78
2023/05/06 10:49:17;;;;;;;4.22;1.65;;;;;;;31.54;24.79;98815.72;4980353;28;20108;-78
2023/05/06 10:51:42;;;;;;;3.65;1.75;;;;;;;31.36;24.70;98804.16;4937227;29;20043;-78
2023/05/06 10:54:17;;;;;;;5.93;1.70;;;;;;;31.32;24.99;98805.72;4937120;29;20506;-78
2023/05/06 10:56:48;;;;;;;3.90;1.60;;;;;;;31.27;25.20;98821.03;4922316;29;20138;-77
2023/05/06 10:59:15;;;;;;;2.95;1.67;;;;;;;31.28;24.79;98822.66;4937116;29;20450;-77
2023/05/06 11:02:03;;;;;;;2.83;1.70;;;;;;;31.04;25.41;98828.25;4920670;29;20151;-78
2023/05/06 11:04:30;;;;;;;4.45;1.65;;;;;;;30.95;25.38;98832.44;4895783;29;20143;-78
2023/05/06 11:07:12;;;;;;;3.55;1.42;;;;;;;30.87;25.42;98832.84;4864986;29;20040;-79
2023/05/06 11:10:12;;;;;;;4.95;1.50;;;;;;;30.74;25.96;98831.31;4879843;29;20455;-79
2023/05/06 11:12:44;;;;;;;4.78;1.73;;;;;;;30.54;25.80;98824.56;4822237;29;20461;-78
2023/05/06 11:15:36;;;;;;;3.90;1.52;;;;;;;30.37;25.88;98829.91;4822095;29;20530;-78
2023/05/06 11:18:28;;;;;;;3.70;1.52;;;;;;;30.18;26.27;98834.72;4813946;29;20195;-79
2023/05/06 11:20:59;;;;;;;3.63;1.80;;;;;;;29.95;26.45;98841.03;4806625;29;20051;-78
2023/05/06 11:23:40;;;;;;;3.83;1.65;;;;;;;29.80;26.99;98843.44;4806345;29;20042;-78
2023/05/06 11:26:06;;;;;;;2.58;1.60;;;;;;;29.58;27.29;98836.00;4806889;29;20467;-78
2023/05/06 11:28:32;;;;;;;3.50;1.63;;;;;;;29.57;27.35;98831.66;4837364;29;20140;-78
2023/05/06 11:30:57;;;;;;;2.35;1.40;;;;;;;29.45;27.22;98836.28;4858324;29;20045;-78
2023/05/06 11:33:23;;;;;;;3.15;1.70;;;;;;;29.35;27.48;98829.66;4842940;29;20049;-78